Time;durP1;ratioP1;P1;durP2;ratioP2;P2;SDS_P1;SDS_P2;PMS_P1;PMS_P2;Temp;Humidity;BMP_temperature;BMP_pressure;BME280_temperature;BME280_humidity;BME280_pressure;Samples;Min_cycle;Max_cycle;Signal;HPM_P1;HPM_P2
2023/03/10 00:02:16;;;;;;;19.92;8.38;;;1.30;99.90;;;;;;4991448;28;20074;-49
2023/03/10 00:04:42;;;;;;;21.83;8.98;;;0.80;99.90;;;;;;4992006;28;20070;-52
2023/03/10 00:07:08;;;;;;;23.27;9.20;;;1.30;99.90;;;;;;4991572;28;20557;-51
2023/03/10 00:09:33;;;;;;;23.15;8.75;;;1.40;99.90;;;;;;4990716;28;20170;-52
2023/03/10 00:11:59;;;;;;;21.45;9.18;;;1.00;99.90;;;;;;4990521;28;20045;-47
2023/03/10 00:14:25;;;;;;;24.00;9.32;;;1.20;99.90;;;;;;4991861;28;20046;-46
2023/03/10 00:16:50;;;;;;;22.25;9.25;;;1.20;99.90;;;;;;4991388;28;20542;-52
2023/03/10 00:19:16;;;;;;;23.05;9.40;;;0.80;99.90;;;;;;4991439;28;20505;-48
2023/03/10 00:21:44;;;;;;;22.95;10.23;;;0.80;99.90;;;;;;4990387;28;20038;-50
2023/03/10 00:24:10;;;;;;;24.10;10.38;;;1.50;99.90;;;;;;4991554;28;20035;-50
2023/03/10 00:26:37;;;;;;;24.00;10.27;;;1.30;99.90;;;;;;4991333;28;20552;-51
2023/03/10 00:29:03;;;;;;;25.02;10.30;;;0.80;99.90;;;;;;4991172;28;20053;-48
2023/03/10 00:31:30;;;;;;;24.75;9.95;;;1.00;99.90;;;;;;4988247;28;20046;-50
2023/03/10 00:33:57;;;;;;;26.42;11.45;;;1.20;99.90;;;;;;4991236;28;20490;-51
2023/03/10 00:36:25;;;;;;;25.42;10.90;;;0.80;99.90;;;;;;4990063;28;20474;-50
2023/03/10 00:38:53;;;;;;;26.90;10.10;;;1.30;99.90;;;;;;4991443;28;20038;-47
2023/03/10 00:41:23;;;;;;;24.05;10.63;;;1.00;99.90;;;;;;4990805;28;20034;-46
2023/03/10 00:43:49;;;;;;;23.10;10.43;;;1.10;99.90;;;;;;4990667;28;20039;-48
2023/03/10 00:46:15;;;;;;;25.35;10.20;;;1.10;99.90;;;;;;4990763;28;20030;-52
2023/03/10 00:48:41;;;;;;;22.83;10.02;;;1.00;99.90;;;;;;4991349;28;20104;-47
2023/03/10 00:51:08;;;;;;;22.70;9.45;;;1.30;99.90;;;;;;4991231;28;20612;-49
2023/03/10 00:53:38;;;;;;;25.02;11.48;;;0.80;99.90;;;;;;4990646;28;20069;-48
2023/03/10 00:56:16;;;;;;;24.85;10.55;;;0.80;99.90;;;;;;4990797;28;20082;-49
2023/03/10 00:58:43;;;;;;;25.20;10.05;;;0.90;99.90;;;;;;4989878;28;20038;-47
2023/03/10 01:01:19;;;;;;;23.10;9.88;;;1.30;99.90;;;;;;4991129;28;20141;-51
2023/03/10 01:03:45;;;;;;;22.90;10.20;;;1.10;99.90;;;;;;4990874;28;20031;-49
2023/03/10 01:06:10;;;;;;;23.50;10.10;;;1.30;99.90;;;;;;4990888;28;20105;-51
2023/03/10 01:08:36;;;;;;;23.73;9.77;;;1.30;99.90;;;;;;4991002;28;20042;-48
2023/03/10 01:11:02;;;;;;;21.92;9.57;;;1.70;99.90;;;;;;4990139;28;20053;-49
2023/03/10 01:13:28;;;;;;;22.33;9.98;;;0.70;99.90;;;;;;4990466;28;20030;-47
2023/03/10 01:15:53;;;;;;;22.85;9.25;;;1.20;99.90;;;;;;4987415;28;20038;-49
2023/03/10 01:18:20;;;;;;;22.13;9.38;;;0.80;99.90;;;;;;4990343;28;20053;-48
2023/03/10 01:20:46;;;;;;;21.13;9.23;;;1.20;99.90;;;;;;4990429;28;20070;-52
2023/03/10 01:23:14;;;;;;;20.67;9.57;;;0.90;99.90;;;;;;4991035;28;20136;-49
2023/03/10 01:25:40;;;;;;;19.73;9.00;;;1.20;99.90;;;;;;4990554;28;20396;-52
2023/03/10 01:28:06;;;;;;;20.65;9.40;;;1.30;99.90;;;;;;4990674;28;20042;-48
2023/03/10 01:30:31;;;;;;;21.60;9.05;;;1.20;99.90;;;;;;4990611;28;20050;-51
2023/03/10 01:32:57;;;;;;;21.20;8.85;;;1.10;99.90;;;;;;4990714;28;20038;-51
2023/03/10 01:35:23;;;;;;;19.55;8.25;;;1.30;99.90;;;;;;4990649;28;20053;-50
2023/03/10 01:37:48;;;;;;;57.50;9.90;;;1.10;99.90;;;;;;4990794;28;20074;-50
2023/03/10 01:40:17;;;;;;;17.80;8.05;;;0.70;99.90;;;;;;4990589;28;20097;-48
2023/03/10 01:42:44;;;;;;;21.02;8.77;;;1.20;99.90;;;;;;4990237;28;20121;-52
2023/03/10 01:45:29;;;;;;;19.23;8.25;;;1.20;99.90;;;;;;4990216;28;20043;-48
2023/03/10 01:47:55;;;;;;;16.63;7.65;;;1.10;99.90;;;;;;4990387;28;20042;-48
2023/03/10 01:50:22;;;;;;;20.35;8.48;;;1.00;99.90;;;;;;4990806;28;20041;-52
2023/03/10 01:52:55;;;;;;;20.80;8.60;;;1.10;99.90;;;;;;4985438;28;20050;-51
2023/03/10 01:55:27;;;;;;;23.48;8.95;;;0.80;99.90;;;;;;4986516;28;20367;-49
2023/03/10 01:57:55;;;;;;;20.88;8.32;;;1.10;99.90;;;;;;4983328;28;20085;-48
2023/03/10 02:00:23;;;;;;;18.45;8.57;;;1.30;99.90;;;;;;4982039;28;20031;-47
2023/03/10 02:03:02;;;;;;;19.80;8.68;;;1.30;99.90;;;;;;4989212;28;20427;-51
2023/03/10 02:05:30;;;;;;;16.50;7.78;;;1.20;99.90;;;;;;4989520;28;20069;-48
2023/03/10 02:07:57;;;;;;;19.67;8.85;;;0.80;99.90;;;;;;4990297;28;20035;-51
2023/03/10 02:10:22;;;;;;;19.17;8.85;;;1.00;99.90;;;;;;4990039;28;20093;-47
2023/03/10 02:12:48;;;;;;;21.88;9.07;;;1.20;99.90;;;;;;4988537;28;20030;-49
2023/03/10 02:15:14;;;;;;;17.30;8.38;;;0.80;99.90;;;;;;4990426;28;20038;-51
2023/03/10 02:17:40;;;;;;;17.85;8.10;;;1.20;99.90;;;;;;4989662;28;20593;-49
2023/03/10 02:20:22;;;;;;;20.15;8.80;;;0.70;99.90;;;;;;4989241;28;20030;-49
2023/03/10 02:22:48;;;;;;;18.38;7.45;;;0.80;99.90;;;;;;4990496;28;20382;-50
2023/03/10 02:25:52;;;;;;;20.17;8.93;;;0.70;99.90;;;;;;4993962;28;20390;-50
2023/03/10 02:28:18;;;;;;;20.05;8.57;;;0.70;99.90;;;;;;4993161;28;20070;-51
2023/03/10 02:30:47;;;;;;;20.10;8.40;;;0.90;99.90;;;;;;4993612;28;20062;-52
2023/03/10 02:33:27;;;;;;;22.75;9.20;;;1.10;99.90;;;;;;4993790;28;20030;-47
2023/03/10 02:35:53;;;;;;;22.55;9.75;;;1.20;99.90;;;;;;4990340;28;20038;-52
2023/03/10 02:38:19;;;;;;;19.08;8.90;;;0.80;99.90;;;;;;4993676;28;20141;-48
2023/03/10 02:40:48;;;;;;;23.17;10.52;;;0.70;99.90;;;;;;4992920;28;20461;-50
2023/03/10 02:43:25;;;;;;;22.67;10.05;;;1.20;99.90;;;;;;4992174;28;20509;-51
2023/03/10 02:45:52;;;;;;;21.25;9.77;;;0.80;99.90;;;;;;4989922;28;20041;-48
2023/03/10 02:48:24;;;;;;;22.67;9.93;;;1.20;99.90;;;;;;4992938;28;20046;-49
2023/03/10 02:50:51;;;;;;;22.20;9.82;;;1.20;99.90;;;;;;4992499;28;20521;-48
2023/03/10 02:53:23;;;;;;;23.27;9.77;;;0.80;99.90;;;;;;4992654;28;20030;-48
2023/03/10 02:55:49;;;;;;;20.42;9.35;;;1.30;99.90;;;;;;4992851;28;20042;-49
2023/03/10 02:58:16;;;;;;;23.33;10.05;;;1.20;99.90;;;;;;4992992;28;20030;-48
2023/03/10 03:00:44;;;;;;;22.23;9.65;;;1.20;99.90;;;;;;4992995;28;20042;-49
2023/03/10 03:03:11;;;;;;;23.08;9.73;;;0.70;99.90;;;;;;4993011;28;20048;-49
2023/03/10 03:05:38;;;;;;;21.80;9.90;;;1.00;99.90;;;;;;4993187;28;20046;-49
2023/03/10 03:08:05;;;;;;;21.75;10.10;;;0.80;99.90;;;;;;4992995;28;20080;-48
2023/03/10 03:10:32;;;;;;;21.02;9.82;;;0.70;99.90;;;;;;4992912;28;20053;-51
2023/03/10 03:12:57;;;;;;;21.60;9.75;;;0.70;99.90;;;;;;4992193;28;20070;-49
2023/03/10 03:15:23;;;;;;;21.52;10.38;;;1.20;99.90;;;;;;4992915;28;20072;-51
2023/03/10 03:17:49;;;;;;;21.00;9.48;;;1.20;99.90;;;;;;4991494;28;20491;-48
2023/03/10 03:20:15;;;;;;;18.65;8.35;;;0.70;99.90;;;;;;4992234;28;20392;-51
2023/03/10 03:22:43;;;;;;;21.90;9.88;;;0.90;99.90;;;;;;4992845;28;20038;-47
2023/03/10 03:25:11;;;;;;;19.92;9.07;;;0.70;99.90;;;;;;4992224;28;20049;-51
2023/03/10 03:27:37;;;;;;;19.67;8.27;;;0.90;99.90;;;;;;4992713;28;20050;-51
2023/03/10 03:30:05;;;;;;;20.45;8.95;;;0.90;99.90;;;;;;4990106;28;20060;-49
2023/03/10 03:32:31;;;;;;;18.33;8.13;;;0.70;99.90;;;;;;4991129;28;20034;-47
2023/03/10 03:34:58;;;;;;;17.88;8.48;;;1.10;99.90;;;;;;4992573;28;20035;-49
2023/03/10 03:37:24;;;;;;;16.65;8.25;;;1.00;99.90;;;;;;4992491;28;20050;-50
2023/03/10 03:39:50;;;;;;;19.85;8.60;;;1.10;99.90;;;;;;4991764;28;20038;-48
2023/03/10 03:42:16;;;;;;;17.70;8.35;;;0.90;99.90;;;;;;4991704;28;20121;-50
2023/03/10 03:44:41;;;;;;;17.52;7.88;;;0.60;99.90;;;;;;4992053;28;20470;-47
2023/03/10 03:47:09;;;;;;;18.30;8.27;;;0.90;99.90;;;;;;4992300;28;20069;-49
2023/03/10 03:49:36;;;;;;;18.45;8.63;;;1.10;99.90;;;;;;4990724;28;20440;-52
2023/03/10 03:52:02;;;;;;;17.77;7.97;;;0.70;99.90;;;;;;4992244;28;20509;-48
2023/03/10 03:54:28;;;;;;;19.10;8.98;;;0.70;99.90;;;;;;4992232;28;20038;-50
2023/03/10 03:56:53;;;;;;;17.05;8.10;;;1.20;99.90;;;;;;4991075;28;20042;-50
2023/03/10 03:59:19;;;;;;;18.15;8.73;;;1.00;99.90;;;;;;4992589;28;20230;-48
2023/03/10 04:01:45;;;;;;;20.38;8.95;;;0.90;99.90;;;;;;4992161;28;20084;-51
2023/03/10 04:04:11;;;;;;;18.63;8.50;;;0.60;99.90;;;;;;4991816;28;20185;-52
2023/03/10 04:06:36;;;;;;;18.95;9.00;;;0.90;99.90;;;;;;4991785;28;20133;-50
2023/03/10 04:09:03;;;;;;;19.58;8.65;;;0.80;99.90;;;;;;4991771;28;20046;-51
2023/03/10 04:11:29;;;;;;;21.08;9.10;;;0.60;99.90;;;;;;4991465;28;20133;-52
2023/03/10 04:13:55;;;;;;;18.00;8.98;;;1.00;99.90;;;;;;4991473;28;20038;-52
2023/03/10 04:16:20;;;;;;;22.73;9.30;;;0.60;99.90;;;;;;4988858;28;20048;-48
2023/03/10 04:18:46;;;;;;;21.83;9.43;;;0.70;99.90;;;;;;4989785;28;20133;-52
2023/03/10 04:21:12;;;;;;;23.00;10.10;;;0.90;99.90;;;;;;4992169;28;20057;-51
2023/03/10 04:23:40;;;;;;;24.75;10.02;;;0.80;99.90;;;;;;4990783;28;20034;-46
2023/03/10 04:26:08;;;;;;;23.63;10.50;;;1.20;99.90;;;;;;4991663;28;20052;-50
2023/03/10 04:28:34;;;;;;;25.73;10.65;;;1.20;99.90;;;;;;4991268;28;20490;-50
2023/03/10 04:30:59;;;;;;;23.85;10.88;;;1.20;99.90;;;;;;4991673;28;20052;-51
2023/03/10 04:33:25;;;;;;;24.88;10.45;;;0.90;99.90;;;;;;4991235;28;20046;-47
2023/03/10 04:35:52;;;;;;;25.17;11.10;;;0.60;99.90;;;;;;4990151;28;20030;-51
2023/03/10 04:38:18;;;;;;;22.05;10.02;;;1.20;99.90;;;;;;4991071;28;20097;-49
2023/03/10 04:40:44;;;;;;;24.42;11.50;;;0.70;99.90;;;;;;4991594;28;20422;-48
2023/03/10 04:43:09;;;;;;;25.70;11.20;;;1.20;99.90;;;;;;4990787;28;20470;-50
2023/03/10 04:45:35;;;;;;;25.58;11.35;;;0.60;99.90;;;;;;4990535;28;20057;-50
2023/03/10 04:48:01;;;;;;;27.23;11.48;;;1.30;99.90;;;;;;4990919;28;20042;-48
2023/03/10 04:50:27;;;;;;;26.88;11.48;;;1.30;99.90;;;;;;4991203;28;20042;-50
2023/03/10 04:52:53;;;;;;;23.55;10.65;;;1.10;99.90;;;;;;4991371;28;20077;-49
2023/03/10 04:55:19;;;;;;;28.70;11.32;;;1.20;99.90;;;;;;4991036;28;20115;-49
2023/03/10 04:57:44;;;;;;;22.15;10.32;;;0.70;99.90;;;;;;4990673;28;20034;-51
2023/03/10 05:00:11;;;;;;;24.55;10.93;;;0.70;99.90;;;;;;4988571;28;20034;-48
2023/03/10 05:02:38;;;;;;;22.48;10.63;;;0.60;99.90;;;;;;4990359;28;20726;-52
2023/03/10 05:05:05;;;;;;;24.58;10.50;;;1.10;99.90;;;;;;4991008;28;20045;-51
2023/03/10 05:07:31;;;;;;;20.92;9.68;;;1.00;99.90;;;;;;4990931;28;20042;-49
2023/03/10 05:09:57;;;;;;;22.10;9.82;;;0.90;99.90;;;;;;4990304;28;20054;-51
2023/03/10 05:12:23;;;;;;;20.13;8.73;;;0.70;99.90;;;;;;4989413;28;20105;-46
2023/03/10 05:14:49;;;;;;;25.50;10.30;;;1.00;99.90;;;;;;4990530;28;20130;-48
2023/03/10 05:17:14;;;;;;;24.52;9.50;;;1.00;99.90;;;;;;4989077;28;20038;-49
2023/03/10 05:19:40;;;;;;;21.10;9.27;;;0.80;99.90;;;;;;4990609;28;20042;-48
2023/03/10 05:22:06;;;;;;;22.13;9.10;;;0.70;99.90;;;;;;4989450;28;20042;-51
2023/03/10 05:24:33;;;;;;;17.27;8.05;;;0.90;99.90;;;;;;4989214;28;20077;-50
2023/03/10 05:27:01;;;;;;;18.42;8.40;;;1.30;99.90;;;;;;4990742;28;20510;-50
2023/03/10 05:29:27;;;;;;;20.20;8.95;;;0.90;99.90;;;;;;4990550;28;20108;-49
2023/03/10 05:31:52;;;;;;;17.58;8.30;;;1.50;99.90;;;;;;4990923;28;20120;-50
2023/03/10 05:34:18;;;;;;;19.90;8.80;;;0.90;99.90;;;;;;4990235;28;20042;-50
2023/03/10 05:36:44;;;;;;;15.65;7.00;;;0.90;99.90;;;;;;4990387;28;20117;-51
2023/03/10 05:39:10;;;;;;;16.88;7.43;;;0.70;99.90;;;;;;4990468;28;20045;-51
2023/03/10 05:41:37;;;;;;;17.33;7.35;;;1.30;99.90;;;;;;4990214;28;20031;-49
2023/03/10 05:44:03;;;;;;;14.98;7.13;;;0.80;99.90;;;;;;4989378;28;20043;-47
2023/03/10 05:46:29;;;;;;;17.00;7.10;;;0.70;99.90;;;;;;4987246;28;20048;-49
2023/03/10 05:48:55;;;;;;;15.55;7.32;;;1.20;99.90;;;;;;4990416;28;20125;-51
2023/03/10 05:51:21;;;;;;;14.07;6.63;;;1.20;99.90;;;;;;4990567;28;20506;-50
2023/03/10 05:53:47;;;;;;;16.02;7.10;;;0.80;99.90;;;;;;4990301;28;20038;-49
2023/03/10 05:56:16;;;;;;;15.00;6.65;;;0.80;99.90;;;;;;4990240;28;20061;-49
2023/03/10 05:58:43;;;;;;;15.05;6.80;;;1.10;99.90;;;;;;4990931;28;20405;-47
2023/03/10 06:01:09;;;;;;;14.25;6.65;;;0.90;99.90;;;;;;4994087;28;20113;-49
2023/03/10 06:03:35;;;;;;;17.30;7.63;;;1.30;99.90;;;;;;4993958;28;20035;-49
2023/03/10 06:06:02;;;;;;;15.20;7.10;;;0.60;99.90;;;;;;4992476;28;20048;-47
2023/03/10 06:08:28;;;;;;;16.23;7.53;;;0.80;99.90;;;;;;4994204;28;20030;-51
2023/03/10 06:10:54;;;;;;;17.05;7.47;;;0.80;99.90;;;;;;4994001;28;20458;-48
2023/03/10 06:13:20;;;;;;;16.70;7.22;;;0.60;99.90;;;;;;4993468;28;20085;-49
2023/03/10 06:15:51;;;;;;;15.55;6.97;;;1.00;99.90;;;;;;4993844;28;20069;-51
2023/03/10 06:18:18;;;;;;;15.95;7.85;;;1.10;99.90;;;;;;4993689;28;20100;-49
2023/03/10 06:20:44;;;;;;;17.73;7.03;;;0.80;99.90;;;;;;4993625;28;20081;-48
2023/03/10 06:23:09;;;;;;;18.67;7.80;;;1.00;99.90;;;;;;4993592;28;20046;-49
2023/03/10 06:25:35;;;;;;;17.08;7.93;;;0.60;99.90;;;;;;4993520;28;20088;-52
2023/03/10 06:28:01;;;;;;;15.43;6.90;;;1.30;99.90;;;;;;4994031;28;20121;-47
2023/03/10 06:30:27;;;;;;;15.18;7.32;;;1.20;99.90;;;;;;4990418;28;20035;-49
2023/03/10 06:32:52;;;;;;;18.08;7.38;;;1.20;99.90;;;;;;4993505;28;20053;-48
2023/03/10 06:35:18;;;;;;;15.32;7.30;;;1.10;99.90;;;;;;4993617;28;20038;-51
2023/03/10 06:37:44;;;;;;;18.27;7.72;;;0.90;99.90;;;;;;4993264;28;20477;-49
2023/03/10 06:40:12;;;;;;;16.40;7.40;;;0.70;99.90;;;;;;4993343;28;20607;-47
2023/03/10 06:42:39;;;;;;;16.05;7.65;;;1.30;99.90;;;;;;4993233;28;20517;-49
2023/03/10 06:45:06;;;;;;;16.83;7.90;;;0.70;99.90;;;;;;4993220;28;20053;-48
2023/03/10 06:47:32;;;;;;;20.10;7.95;;;1.20;99.90;;;;;;4993048;28;20034;-50
2023/03/10 06:49:59;;;;;;;17.50;7.35;;;0.90;99.90;;;;;;4991586;28;20046;-51
2023/03/10 06:52:25;;;;;;;18.35;7.40;;;0.70;99.90;;;;;;4992986;28;20042;-48
2023/03/10 06:54:50;;;;;;;17.17;7.72;;;0.90;99.90;;;;;;4971668;28;20045;-50
2023/03/10 06:57:16;;;;;;;16.85;7.35;;;1.10;99.90;;;;;;4983947;28;20582;-47
2023/03/10 06:59:42;;;;;;;16.83;7.80;;;1.20;99.90;;;;;;4983541;28;20039;-47
2023/03/10 07:02:13;;;;;;;17.65;8.02;;;1.00;99.90;;;;;;4981426;28;20374;-48
2023/03/10 07:04:39;;;;;;;18.58;7.60;;;0.80;99.90;;;;;;4983665;28;20121;-51
2023/03/10 07:07:05;;;;;;;18.90;8.23;;;1.00;99.90;;;;;;4984224;28;20435;-49
2023/03/10 07:09:30;;;;;;;17.98;8.30;;;0.90;99.90;;;;;;4983031;28;20133;-50
2023/03/10 07:11:56;;;;;;;16.08;7.75;;;1.30;99.90;;;;;;4983520;28;20398;-50
2023/03/10 07:14:22;;;;;;;16.23;7.97;;;0.80;99.90;;;;;;4983233;28;20077;-49
2023/03/10 07:16:47;;;;;;;17.02;7.68;;;1.10;99.90;;;;;;4982600;28;20042;-49
2023/03/10 07:19:13;;;;;;;18.73;8.60;;;0.80;99.90;;;;;;4983004;28;20046;-47
2023/03/10 07:21:39;;;;;;;18.63;8.50;;;1.40;99.90;;;;;;4982985;28;20093;-49
2023/03/10 07:24:04;;;;;;;18.55;8.50;;;0.80;99.90;;;;;;4983441;28;20125;-49
2023/03/10 07:26:30;;;;;;;20.20;9.18;;;1.10;99.90;;;;;;4980433;28;20381;-50
2023/03/10 07:28:56;;;;;;;17.88;8.38;;;1.50;99.90;;;;;;4979622;28;20049;-50
2023/03/10 07:31:22;;;;;;;17.58;8.27;;;1.40;99.90;;;;;;4980253;28;20042;-50
2023/03/10 07:33:48;;;;;;;20.10;8.85;;;0.90;99.90;;;;;;4981574;28;20053;-50
2023/03/10 07:36:17;;;;;;;17.95;8.38;;;1.50;99.90;;;;;;4980171;28;20046;-48
2023/03/10 07:38:43;;;;;;;20.55;9.30;;;1.90;99.90;;;;;;4982339;28;20402;-52
2023/03/10 07:41:12;;;;;;;20.75;9.15;;;1.40;99.90;;;;;;4981877;28;20434;-48
2023/03/10 07:43:38;;;;;;;19.45;8.70;;;1.60;99.90;;;;;;4981967;28;20031;-51
2023/03/10 07:46:08;;;;;;;21.17;9.15;;;1.80;99.90;;;;;;4982121;28;20092;-48
2023/03/10 07:48:34;;;;;;;19.77;8.57;;;0.90;99.90;;;;;;4980892;28;20039;-49
2023/03/10 07:51:00;;;;;;;23.90;9.73;;;1.00;99.90;;;;;;4982389;28;20048;-48
2023/03/10 07:53:26;;;;;;;21.85;9.93;;;1.10;99.90;;;;;;4980686;28;20034;-50
2023/03/10 07:55:53;;;;;;;23.42;10.50;;;1.40;99.90;;;;;;4981864;28;20536;-48
2023/03/10 07:58:19;;;;;;;24.42;9.93;;;1.60;99.90;;;;;;4981441;28;20117;-48
2023/03/10 08:00:45;;;;;;;24.88;10.55;;;1.40;99.90;;;;;;4981544;28;20573;-51
2023/03/10 08:03:11;;;;;;;25.27;10.77;;;1.00;99.90;;;;;;4981755;28;20106;-46
2023/03/10 08:05:41;;;;;;;25.38;10.48;;;1.20;99.90;;;;;;4983028;28;20911;-47
2023/03/10 08:08:06;;;;;;;24.80;11.15;;;1.20;99.90;;;;;;4982429;28;20030;-49
2023/03/10 08:10:32;;;;;;;24.45;10.75;;;1.00;99.90;;;;;;4982388;28;20195;-48
2023/03/10 08:12:58;;;;;;;26.63;12.20;;;1.50;99.90;;;;;;4981706;28;20457;-48
2023/03/10 08:15:25;;;;;;;29.35;12.52;;;1.60;99.90;;;;;;4981031;28;20034;-49
2023/03/10 08:17:51;;;;;;;28.80;12.27;;;1.20;99.90;;;;;;4982531;28;20517;-48
2023/03/10 08:20:17;;;;;;;28.10;12.95;;;1.30;99.90;;;;;;4982026;28;20042;-46
2023/03/10 08:22:43;;;;;;;30.58;12.95;;;1.30;99.90;;;;;;4980452;28;20509;-46
2023/03/10 08:25:09;;;;;;;28.60;13.05;;;1.40;99.90;;;;;;4981963;28;20042;-50
2023/03/10 08:27:34;;;;;;;31.50;13.48;;;1.50;99.90;;;;;;4981920;28;20052;-48
2023/03/10 08:30:00;;;;;;;30.83;14.05;;;1.70;99.90;;;;;;4981924;28;20041;-46
2023/03/10 08:32:26;;;;;;;33.10;13.45;;;1.10;99.90;;;;;;4981533;28;20038;-48
2023/03/10 08:34:52;;;;;;;34.80;14.60;;;2.40;99.90;;;;;;4982045;28;20049;-47
2023/03/10 08:37:17;;;;;;;31.33;14.32;;;1.80;99.90;;;;;;4981706;28;20046;-46
2023/03/10 08:39:43;;;;;;;35.67;14.57;;;1.20;99.90;;;;;;4982041;28;20160;-48
2023/03/10 08:42:10;;;;;;;30.02;12.57;;;1.60;99.90;;;;;;4983357;28;20473;-48
2023/03/10 08:44:37;;;;;;;33.88;14.63;;;1.80;99.90;;;;;;4982206;28;20035;-48
2023/03/10 08:47:02;;;;;;;30.27;13.77;;;1.30;99.90;;;;;;4981745;28;20073;-46
2023/03/10 08:49:28;;;;;;;30.67;13.65;;;1.70;99.90;;;;;;4981884;28;20224;-48
2023/03/10 08:51:54;;;;;;;28.65;13.60;;;1.20;99.90;;;;;;4981994;28;20478;-48
2023/03/10 08:54:21;;;;;;;32.08;13.38;;;1.20;99.90;;;;;;4982242;28;20034;-50
2023/03/10 08:56:47;;;;;;;29.55;13.38;;;1.20;99.90;;;;;;4980288;28;20034;-48
2023/03/10 08:59:13;;;;;;;31.88;13.57;;;1.30;99.90;;;;;;4982883;28;20056;-48
2023/03/10 09:01:39;;;;;;;32.78;13.85;;;1.60;99.90;;;;;;4981203;28;20034;-50
2023/03/10 09:04:07;;;;;;;33.20;14.30;;;1.50;99.90;;;;;;4981083;28;20030;-47
2023/03/10 09:06:34;;;;;;;31.50;14.15;;;1.50;99.90;;;;;;4981374;28;20039;-49
2023/03/10 09:09:00;;;;;;;30.92;13.68;;;2.00;99.90;;;;;;4979544;28;20043;-48
2023/03/10 09:11:30;;;;;;;31.55;13.43;;;1.30;99.90;;;;;;4981364;28;20042;-46
2023/03/10 09:13:56;;;;;;;31.63;14.32;;;1.60;99.90;;;;;;4980343;28;20129;-47
2023/03/10 09:16:22;;;;;;;31.73;14.00;;;1.80;99.90;;;;;;4981343;28;20189;-47
2023/03/10 09:18:47;;;;;;;26.02;12.70;;;2.30;99.90;;;;;;4981664;28;20050;-49
2023/03/10 09:21:15;;;;;;;32.55;13.20;;;1.90;99.90;;;;;;4981231;28;20038;-49
2023/03/10 09:23:42;;;;;;;31.13;14.05;;;1.40;99.90;;;;;;4982292;28;20034;-48
2023/03/10 09:26:08;;;;;;;32.42;13.68;;;1.50;99.90;;;;;;4980303;28;20160;-49
2023/03/10 09:28:34;;;;;;;26.52;12.45;;;1.80;99.90;;;;;;4978752;28;20045;-47
2023/03/10 09:31:00;;;;;;;30.50;14.57;;;1.50;99.90;;;;;;4981068;28;20038;-49
2023/03/10 09:33:25;;;;;;;29.17;12.93;;;1.80;99.90;;;;;;5009441;28;20038;-46
2023/03/10 09:35:51;;;;;;;32.47;13.45;;;1.50;99.90;;;;;;4986510;28;20624;-50
2023/03/10 09:38:17;;;;;;;28.50;13.32;;;1.60;99.90;;;;;;4985498;28;20096;-50
2023/03/10 09:40:52;;;;;;;28.45;12.73;;;1.70;99.90;;;;;;4984922;28;20100;-46
2023/03/10 09:43:19;;;;;;;28.15;13.30;;;2.00;99.90;;;;;;4983386;28;20042;-48
2023/03/10 09:45:48;;;;;;;29.42;13.60;;;1.50;99.90;;;;;;4984228;28;20085;-53
2023/03/10 09:48:38;;;;;;;27.73;12.85;;;1.50;99.90;;;;;;4983225;28;20072;-48
2023/03/10 09:51:26;;;;;;;26.23;12.40;;;1.50;99.90;;;;;;4981301;28;20041;-48
2023/03/10 09:54:10;;;;;;;26.33;12.35;;;1.50;99.90;;;;;;4983116;28;20197;-51
2023/03/10 09:56:36;;;;;;;27.30;12.55;;;1.40;99.90;;;;;;4983172;28;20132;-51
2023/03/10 09:59:35;;;;;;;27.85;12.48;;;1.90;99.90;;;;;;4981935;28;20070;-49
2023/03/10 10:02:02;;;;;;;26.90;11.45;;;1.90;99.90;;;;;;4957947;28;20062;-47
2023/03/10 10:04:36;;;;;;;25.40;12.48;;;1.60;99.90;;;;;;4984267;28;20027;-47
2023/03/10 10:07:12;;;;;;;27.30;12.05;;;1.70;99.90;;;;;;4983498;28;20039;-49
2023/03/10 10:09:53;;;;;;;27.15;12.35;;;1.90;99.90;;;;;;4980684;28;20390;-51
2023/03/10 10:12:23;;;;;;;25.70;12.95;;;1.50;99.90;;;;;;4981737;28;20046;-51
2023/03/10 10:14:56;;;;;;;30.42;13.63;;;1.80;99.90;;;;;;4983161;28;20045;-47
2023/03/10 10:17:43;;;;;;;30.75;13.23;;;1.60;99.90;;;;;;4981349;28;20046;-48
2023/03/10 10:20:38;;;;;;;25.48;12.48;;;1.90;99.90;;;;;;4980817;28;20105;-49
2023/03/10 10:23:23;;;;;;;26.10;11.85;;;1.40;99.90;;;;;;5005595;28;20070;-48
2023/03/10 10:25:49;;;;;;;30.17;13.43;;;2.30;99.90;;;;;;4980219;28;20120;-49
2023/03/10 10:28:37;;;;;;;27.88;12.48;;;1.70;99.90;;;;;;4983320;28;20149;-48
2023/03/10 10:31:20;;;;;;;32.28;13.88;;;1.90;99.90;;;;;;4980847;28;20042;-49
2023/03/10 10:33:53;;;;;;;29.55;12.70;;;1.80;99.90;;;;;;4980355;28;20038;-47
2023/03/10 10:36:19;;;;;;;28.33;13.17;;;1.60;99.90;;;;;;4980609;28;20045;-49
2023/03/10 10:38:49;;;;;;;26.83;13.55;;;1.50;99.90;;;;;;4981882;28;20042;-47
2023/03/10 10:41:23;;;;;;;28.70;13.73;;;2.00;99.90;;;;;;4983507;28;20061;-48
2023/03/10 10:43:49;;;;;;;28.85;13.68;;;1.40;99.90;;;;;;4982395;28;20035;-48
2023/03/10 10:46:22;;;;;;;26.65;13.25;;;1.40;99.90;;;;;;4982295;28;20437;-47
2023/03/10 10:48:50;;;;;;;26.83;11.95;;;1.60;99.90;;;;;;4963331;28;20077;-49
2023/03/10 10:51:31;;;;;;;25.88;12.88;;;1.40;99.90;;;;;;4981258;28;20061;-48
2023/03/10 10:54:03;;;;;;;25.05;12.15;;;1.50;99.90;;;;;;4981031;28;20066;-49
2023/03/10 10:56:30;;;;;;;29.10;12.85;;;2.00;99.90;;;;;;4979814;28;20058;-47
2023/03/10 10:59:04;;;;;;;26.02;12.07;;;2.00;99.90;;;;;;4978584;28;20038;-52
2023/03/10 11:02:26;;;;;;;26.90;12.27;;;1.60;99.90;;;;;;4982261;28;20038;-51
2023/03/10 11:04:52;;;;;;;27.00;12.38;;;1.80;99.90;;;;;;4960855;28;20558;-51
2023/03/10 11:07:26;;;;;;;26.70;11.38;;;2.00;99.90;;;;;;4978885;28;20047;-48
2023/03/10 11:09:53;;;;;;;25.52;11.98;;;1.40;99.90;;;;;;4980507;28;20537;-52
2023/03/10 11:12:25;;;;;;;30.85;12.93;;;1.50;99.90;;;;;;4981205;28;20059;-48
2023/03/10 11:15:24;;;;;;;29.00;12.88;;;1.60;99.90;;;;;;4980297;28;20046;-47
2023/03/10 11:18:08;;;;;;;26.67;12.48;;;2.10;99.90;;;;;;4981661;28;20409;-47
2023/03/10 11:20:42;;;;;;;28.13;12.10;;;1.50;99.90;;;;;;4982190;28;20916;-50
2023/03/10 11:23:33;;;;;;;28.23;13.30;;;1.60;99.90;;;;;;4979513;28;20038;-52
2023/03/10 11:26:13;;;;;;;24.27;11.65;;;1.70;99.90;;;;;;4979658;28;20494;-49
2023/03/10 11:28:55;;;;;;;24.95;12.05;;;1.70;99.90;;;;;;4980204;28;20030;-48
2023/03/10 11:31:42;;;;;;;26.40;12.60;;;1.70;99.90;;;;;;4980871;28;20074;-50
2023/03/10 11:34:18;;;;;;;30.00;12.85;;;1.70;99.90;;;;;;4979833;28;20704;-48
2023/03/10 11:36:50;;;;;;;26.88;12.82;;;2.20;99.90;;;;;;4982002;28;20490;-49
2023/03/10 11:39:25;;;;;;;24.95;12.23;;;2.10;99.90;;;;;;5008886;28;20270;-50
2023/03/10 11:42:06;;;;;;;23.13;11.40;;;2.20;99.90;;;;;;4980821;28;20458;-48
2023/03/10 11:44:47;;;;;;;27.80;11.88;;;2.10;99.90;;;;;;4980927;28;20369;-48
2023/03/10 11:47:41;;;;;;;26.90;13.00;;;1.70;99.90;;;;;;4981692;28;20031;-50
2023/03/10 11:50:34;;;;;;;26.02;12.55;;;2.10;99.90;;;;;;4979729;28;20045;-49
2023/03/10 11:53:05;;;;;;;26.50;12.93;;;2.30;99.90;;;;;;4979855;28;20042;-48
2023/03/10 11:55:31;;;;;;;23.80;12.00;;;2.10;99.90;;;;;;4987627;28;20596;-47
2023/03/10 11:58:00;;;;;;;25.00;11.35;;;1.70;99.90;;;;;;4985767;28;20635;-51
2023/03/10 12:00:41;;;;;;;23.30;11.63;;;1.70;99.90;;;;;;4981912;28;20498;-48
2023/03/10 12:03:38;;;;;;;25.05;11.82;;;1.80;99.90;;;;;;4983877;28;20035;-46
2023/03/10 12:06:11;;;;;;;24.30;11.27;;;2.00;99.90;;;;;;4986318;28;20058;-48
2023/03/10 12:08:38;;;;;;;23.98;11.35;;;1.70;99.90;;;;;;4992165;28;20135;-49
2023/03/10 12:11:15;;;;;;;27.40;12.68;;;1.60;99.90;;;;;;4991477;28;20426;-48
2023/03/10 12:13:47;;;;;;;22.48;10.68;;;2.10;99.90;;;;;;4990830;28;20488;-49
2023/03/10 12:16:19;;;;;;;26.38;12.45;;;2.30;99.90;;;;;;4991681;28;20105;-48
2023/03/10 12:18:45;;;;;;;25.23;12.80;;;1.70;99.90;;;;;;4991493;28;20045;-49
2023/03/10 12:21:22;;;;;;;26.58;12.50;;;1.80;99.90;;;;;;4991437;28;20474;-48
2023/03/10 12:23:50;;;;;;;23.67;12.15;;;1.60;99.90;;;;;;4991660;28;20066;-49
2023/03/10 12:26:36;;;;;;;21.83;11.55;;;1.80;99.90;;;;;;4990788;28;20049;-49
2023/03/10 12:29:25;;;;;;;24.63;11.20;;;2.00;99.90;;;;;;4991771;28;20510;-48
2023/03/10 12:31:53;;;;;;;22.52;10.98;;;1.70;99.90;;;;;;4987616;28;20057;-50
2023/03/10 12:34:31;;;;;;;21.90;11.13;;;1.90;99.90;;;;;;4991051;28;20061;-48
2023/03/10 12:37:05;;;;;;;22.58;9.82;;;1.80;99.90;;;;;;4989180;28;20537;-48
2023/03/10 12:39:37;;;;;;;23.88;11.32;;;2.00;99.90;;;;;;4991156;28;20042;-51
2023/03/10 12:42:24;;;;;;;23.17;11.43;;;1.80;99.90;;;;;;4991484;28;20471;-48
2023/03/10 12:45:17;;;;;;;24.35;11.65;;;1.80;99.90;;;;;;4991908;28;20509;-48
2023/03/10 12:48:00;;;;;;;23.58;10.93;;;1.70;99.90;;;;;;4990927;28;20056;-46
2023/03/10 12:50:35;;;;;;;23.98;11.30;;;1.80;99.90;;;;;;4989431;28;20529;-51
2023/03/10 12:53:12;;;;;;;24.63;11.18;;;1.70;99.90;;;;;;4991170;28;20050;-50